createdAt,value
2019-02-22T00:03:47.558Z,103.00
2019-02-22T00:09:53.365Z,115.20
2019-02-22T00:15:59.700Z,113.80
2019-02-22T00:22:05.958Z,107.23
2019-02-22T00:28:11.817Z,123.23
2019-02-22T00:34:18.183Z,109.63
2019-02-22T00:40:24.227Z,117.00
2019-02-22T00:46:30.279Z,114.87
2019-02-22T00:52:36.759Z,114.17
2019-02-22T00:58:42.817Z,108.70
2019-02-22T01:04:48.737Z,96.77
2019-02-22T01:10:54.467Z,85.70
2019-02-22T01:17:00.469Z,81.47
2019-02-22T01:23:06.663Z,89.60
2019-02-22T01:29:12.439Z,92.30
2019-02-22T01:35:18.189Z,87.87
2019-02-22T01:41:24.170Z,99.70
2019-02-22T01:47:30.110Z,96.27
2019-02-22T01:53:35.974Z,91.73
2019-02-22T01:59:41.701Z,98.83
2019-02-22T02:05:47.735Z,91.60
2019-02-22T02:11:53.806Z,93.93
2019-02-22T02:17:59.952Z,102.97
2019-02-22T02:24:06.108Z,99.80
2019-02-22T02:30:12.474Z,104.53
2019-02-22T02:36:18.557Z,104.80
2019-02-22T02:42:24.520Z,114.77
2019-02-22T02:48:30.735Z,107.30
2019-02-22T02:54:36.834Z,102.83
2019-02-22T03:00:42.612Z,113.93
2019-02-22T03:07:05.524Z,105.10
2019-02-22T03:13:11.590Z,111.00
2019-02-22T03:19:17.384Z,103.83
2019-02-22T03:25:23.443Z,103.33
2019-02-22T03:31:29.458Z,101.77
2019-02-22T03:37:35.439Z,109.07
2019-02-22T03:43:41.938Z,106.43
2019-02-22T03:49:48.058Z,113.80
2019-02-22T03:55:53.938Z,112.70
2019-02-22T04:01:59.984Z,115.50
2019-02-22T04:08:07.277Z,115.80
2019-02-22T04:14:13.485Z,132.03
2019-02-22T04:20:19.555Z,140.03
2019-02-22T04:26:25.530Z,137.90
2019-02-22T04:32:31.305Z,148.80
2019-02-22T04:38:37.157Z,124.63
2019-02-22T04:44:43.164Z,119.90
2019-02-22T04:50:49.271Z,117.57
2019-02-22T04:56:55.111Z,108.70
2019-02-22T05:03:00.961Z,108.63
2019-02-22T05:09:07.468Z,117.70
2019-02-22T05:15:13.343Z,109.63
2019-02-22T05:21:19.572Z,127.43
2019-02-22T05:27:25.616Z,109.53
2019-02-22T05:33:31.471Z,120.00
2019-02-22T05:39:37.392Z,119.50
2019-02-22T05:45:43.759Z,121.00
2019-02-22T05:51:49.762Z,107.10
2019-02-22T05:57:55.643Z,123.73
2019-02-22T06:04:01.637Z,120.97
2019-02-22T06:10:09.608Z,110.40
2019-02-22T06:16:15.602Z,100.47
2019-02-22T06:22:29.571Z,91.13
2019-02-22T06:28:28.983Z,92.50
2019-02-22T06:34:34.952Z,94.67
2019-02-22T06:40:41.186Z,88.63
2019-02-22T06:46:47.471Z,85.17
2019-02-22T06:52:53.498Z,88.57
2019-02-22T06:58:59.656Z,90.27
2019-02-22T07:05:06.098Z,92.73
2019-02-22T07:11:33.767Z,105.70
2019-02-22T07:17:39.608Z,99.53
2019-02-22T07:23:46.069Z,99.67
2019-02-22T07:29:52.030Z,90.87
2019-02-22T07:35:59.107Z,89.67
2019-02-22T07:42:04.995Z,82.27
2019-02-22T07:48:11.046Z,85.70
2019-02-22T07:54:17.056Z,83.87
2019-02-22T08:00:23.039Z,73.43
2019-02-22T08:06:29.852Z,75.37
2019-02-22T08:12:35.758Z,86.97
2019-02-22T08:18:41.877Z,85.87
2019-02-22T08:24:48.044Z,81.90
2019-02-22T08:30:53.938Z,78.77
2019-02-22T08:36:59.731Z,78.13
2019-02-22T08:43:05.747Z,77.30
2019-02-22T08:49:13.506Z,69.60
2019-02-22T08:55:19.671Z,66.10
2019-02-22T09:01:25.693Z,64.73
2019-02-22T09:07:31.770Z,57.20
2019-02-22T09:13:43.637Z,58.40
2019-02-22T09:19:45.835Z,58.80
2019-02-22T09:25:51.842Z,56.87
2019-02-22T09:31:57.941Z,52.47
2019-02-22T09:38:03.681Z,56.37
2019-02-22T09:44:09.748Z,45.60
2019-02-22T09:50:16.021Z,43.70
2019-02-22T09:56:21.787Z,34.33
2019-02-22T10:02:28.036Z,33.87
2019-02-22T10:08:33.928Z,37.30
2019-02-22T10:14:39.702Z,36.27
2019-02-22T10:20:45.981Z,34.30
2019-02-22T10:26:52.474Z,28.40
2019-02-22T10:32:58.231Z,28.13
2019-02-22T10:39:06.125Z,24.23
2019-02-22T10:45:12.810Z,19.97
2019-02-22T10:51:18.750Z,18.10
2019-02-22T10:57:24.940Z,17.97
2019-02-22T11:03:30.775Z,18.63
2019-02-22T11:09:36.745Z,12.50
2019-02-22T11:15:43.106Z,12.97
2019-02-22T11:21:49.334Z,10.13
2019-02-22T11:27:55.787Z,10.67
2019-02-22T11:34:02.027Z,13.73
2019-02-22T11:40:08.387Z,13.40
2019-02-22T11:46:14.338Z,12.50
2019-02-22T11:52:20.073Z,10.00
2019-02-22T11:58:26.014Z,9.13
2019-02-22T12:04:32.125Z,9.47
2019-02-22T12:10:38.073Z,7.13
2019-02-22T12:16:43.963Z,9.80
2019-02-22T12:22:49.920Z,8.70
2019-02-22T12:28:58.766Z,8.57
2019-02-22T12:35:04.778Z,11.60
2019-02-22T12:41:10.843Z,11.43
2019-02-22T12:47:16.884Z,7.10
2019-02-22T12:53:22.833Z,8.60
2019-02-22T12:59:28.704Z,8.13
2019-02-22T13:05:34.482Z,8.50
2019-02-22T13:11:40.269Z,7.30
2019-02-22T13:17:46.182Z,7.83
2019-02-22T13:23:52.358Z,7.13
2019-02-22T13:29:58.372Z,11.33
2019-02-22T13:36:04.392Z,5.63
2019-02-22T13:42:10.199Z,6.57
2019-02-22T13:48:16.408Z,8.03
2019-02-22T13:54:22.527Z,8.87
2019-02-22T14:00:28.417Z,10.73
2019-02-22T14:06:34.154Z,10.93
2019-02-22T14:12:40.490Z,18.00
2019-02-22T14:18:46.512Z,19.97
2019-02-22T14:24:52.529Z,19.30
2019-02-22T14:30:58.819Z,19.23
2019-02-22T14:37:05.197Z,16.80
2019-02-22T14:43:16.513Z,14.27
2019-02-22T14:49:18.885Z,13.13
2019-02-22T14:55:24.773Z,15.80
2019-02-22T15:01:30.893Z,15.37
2019-02-22T15:07:36.967Z,14.87
2019-02-22T15:13:42.918Z,13.10
2019-02-22T15:19:48.716Z,14.23
2019-02-22T15:25:54.810Z,13.53
2019-02-22T15:32:01.024Z,12.97
2019-02-22T15:38:06.860Z,16.97
2019-02-22T15:44:13.150Z,11.13
2019-02-22T15:50:19.068Z,12.20
2019-02-22T15:56:25.094Z,11.67
2019-02-22T16:02:31.366Z,11.10
2019-02-22T16:08:37.300Z,11.27
2019-02-22T16:14:43.256Z,12.47
2019-02-22T16:20:49.163Z,12.80
2019-02-22T16:27:04.199Z,14.03
2019-02-22T16:33:10.309Z,15.47
2019-02-22T16:39:16.125Z,16.33
2019-02-22T16:45:21.996Z,15.80
2019-02-22T16:51:28.157Z,17.37
2019-02-22T16:57:34.042Z,21.30
2019-02-22T17:03:40.545Z,17.20
2019-02-22T17:09:46.319Z,20.80
2019-02-22T17:15:52.264Z,16.33
2019-02-22T17:21:58.055Z,16.90
2019-02-22T17:28:04.358Z,16.37
2019-02-22T17:34:10.130Z,16.27
2019-02-22T17:40:16.289Z,17.47
2019-02-22T17:46:22.121Z,13.63
2019-02-22T17:52:27.991Z,21.83
2019-02-22T17:58:34.010Z,12.27
2019-02-22T18:04:39.760Z,13.07
2019-02-22T18:10:45.692Z,13.10
2019-02-22T18:16:51.652Z,13.70
2019-02-22T18:22:57.911Z,12.00
2019-02-22T18:29:03.970Z,14.83
2019-02-22T18:35:11.299Z,13.63
2019-02-22T18:41:17.377Z,13.40
2019-02-22T18:47:23.395Z,17.80
2019-02-22T18:53:29.411Z,17.13
2019-02-22T18:59:37.132Z,16.00
2019-02-22T19:05:43.163Z,16.50
2019-02-22T19:11:49.279Z,19.20
2019-02-22T19:17:55.255Z,21.27
2019-02-22T19:24:01.409Z,20.67
2019-02-22T19:30:09.890Z,24.70
2019-02-22T19:36:15.829Z,29.33
2019-02-22T19:42:21.648Z,32.43
2019-02-22T19:48:27.662Z,35.17
2019-02-22T19:54:33.683Z,39.03
2019-02-22T20:00:40.538Z,41.70
2019-02-22T20:06:46.341Z,43.13
2019-02-22T20:12:52.333Z,40.63
2019-02-22T20:18:58.401Z,43.33
2019-02-22T20:25:04.583Z,45.50
2019-02-22T20:31:19.838Z,43.47
2019-02-22T20:37:19.187Z,43.93
2019-02-22T20:43:25.435Z,42.03
2019-02-22T20:49:31.413Z,44.90
2019-02-22T20:55:38.610Z,42.20
2019-02-22T21:01:44.452Z,45.40
2019-02-22T21:07:50.543Z,47.17
2019-02-22T21:14:00.258Z,45.20
2019-02-22T21:20:06.502Z,47.53
2019-02-22T21:26:12.733Z,46.40
2019-02-22T21:32:18.619Z,45.40
2019-02-22T21:38:24.615Z,43.67
2019-02-22T21:44:30.359Z,39.73
2019-02-22T21:50:36.309Z,45.53
2019-02-22T21:56:42.361Z,41.23
2019-02-22T22:02:48.308Z,46.47
2019-02-22T22:08:55.475Z,41.70
2019-02-22T22:15:01.612Z,45.87
2019-02-22T22:21:08.223Z,45.63
2019-02-22T22:27:14.400Z,43.67
2019-02-22T22:33:20.493Z,43.73
2019-02-22T22:39:26.450Z,41.93
2019-02-22T22:45:32.404Z,46.33
2019-02-22T22:51:38.298Z,40.57
2019-02-22T22:57:44.406Z,45.90
2019-02-22T23:03:50.563Z,42.43
2019-02-22T23:09:56.438Z,43.17
2019-02-22T23:16:02.274Z,42.33
2019-02-22T23:22:08.474Z,42.77
2019-02-22T23:28:14.576Z,38.83
2019-02-22T23:34:20.384Z,44.17
2019-02-22T23:40:26.797Z,41.13
2019-02-22T23:46:32.731Z,44.37
2019-02-22T23:52:39.084Z,40.77
2019-02-22T23:58:44.938Z,44.87
